sensor_id;sensor_type;location;lat;lon;timestamp;temperature;humidity
76040;SHT30;64736;50.462;4.850;2023-01-15T00:01:03;5.89;94.11
76040;SHT30;64736;50.462;4.850;2023-01-15T00:03:29;5.79;94.10
76040;SHT30;64736;50.462;4.850;2023-01-15T00:05:55;5.78;94.59
76040;SHT30;64736;50.462;4.850;2023-01-15T00:08:21;5.72;94.52
76040;SHT30;64736;50.462;4.850;2023-01-15T00:10:47;5.63;94.86
76040;SHT30;64736;50.462;4.850;2023-01-15T00:13:13;5.59;94.82
76040;SHT30;64736;50.462;4.850;2023-01-15T00:15:38;5.51;93.81
76040;SHT30;64736;50.462;4.850;2023-01-15T00:18:04;5.52;94.19
76040;SHT30;64736;50.462;4.850;2023-01-15T00:20:30;5.44;93.99
76040;SHT30;64736;50.462;4.850;2023-01-15T00:22:56;5.42;94.01
76040;SHT30;64736;50.462;4.850;2023-01-15T00:25:21;5.41;93.57
76040;SHT30;64736;50.462;4.850;2023-01-15T00:28:05;5.37;94.12
76040;SHT30;64736;50.462;4.850;2023-01-15T00:30:31;5.35;93.23
76040;SHT30;64736;50.462;4.850;2023-01-15T00:32:57;5.37;93.19
76040;SHT30;64736;50.462;4.850;2023-01-15T00:35:24;5.37;92.76
76040;SHT30;64736;50.462;4.850;2023-01-15T00:37:50;5.35;93.24
76040;SHT30;64736;50.462;4.850;2023-01-15T00:40:18;5.35;92.57
76040;SHT30;64736;50.462;4.850;2023-01-15T00:42:44;5.41;93.25
76040;SHT30;64736;50.462;4.850;2023-01-15T00:45:11;5.41;93.67
76040;SHT30;64736;50.462;4.850;2023-01-15T00:47:41;5.37;92.69
76040;SHT30;64736;50.462;4.850;2023-01-15T00:50:12;5.44;93.01
76040;SHT30;64736;50.462;4.850;2023-01-15T00:52:38;5.47;93.66
76040;SHT30;64736;50.462;4.850;2023-01-15T00:55:06;5.47;93.55
76040;SHT30;64736;50.462;4.850;2023-01-15T00:57:33;5.51;93.19
76040;SHT30;64736;50.462;4.850;2023-01-15T00:59:59;5.55;93.35
76040;SHT30;64736;50.462;4.850;2023-01-15T01:02:25;5.59;94.19
76040;SHT30;64736;50.462;4.850;2023-01-15T01:04:51;5.62;94.27
76040;SHT30;64736;50.462;4.850;2023-01-15T01:07:16;5.62;93.85
76040;SHT30;64736;50.462;4.850;2023-01-15T01:09:43;5.65;94.27
76040;SHT30;64736;50.462;4.850;2023-01-15T01:12:09;5.69;94.64
76040;SHT30;64736;50.462;4.850;2023-01-15T01:14:36;5.73;95.06
76040;SHT30;64736;50.462;4.850;2023-01-15T01:17:02;5.73;95.10
76040;SHT30;64736;50.462;4.850;2023-01-15T01:19:28;5.72;94.33
76040;SHT30;64736;50.462;4.850;2023-01-15T01:21:54;5.76;94.67
76040;SHT30;64736;50.462;4.850;2023-01-15T01:24:23;5.80;94.55
76040;SHT30;64736;50.462;4.850;2023-01-15T01:26:49;5.78;94.06
76040;SHT30;64736;50.462;4.850;2023-01-15T01:29:17;5.85;94.62
76040;SHT30;64736;50.462;4.850;2023-01-15T01:31:44;5.86;93.66
76040;SHT30;64736;50.462;4.850;2023-01-15T01:34:10;5.85;93.96
76040;SHT30;64736;50.462;4.850;2023-01-15T01:36:37;5.92;94.19
76040;SHT30;64736;50.462;4.850;2023-01-15T01:39:04;5.92;93.96
76040;SHT30;64736;50.462;4.850;2023-01-15T01:41:31;5.96;93.98
76040;SHT30;64736;50.462;4.850;2023-01-15T01:44:02;5.98;94.48
76040;SHT30;64736;50.462;4.850;2023-01-15T01:46:30;6.00;94.93
76040;SHT30;64736;50.462;4.850;2023-01-15T01:49:07;6.00;95.13
76040;SHT30;64736;50.462;4.850;2023-01-15T01:51:38;5.99;95.18
76040;SHT30;64736;50.462;4.850;2023-01-15T01:54:05;5.99;95.18
76040;SHT30;64736;50.462;4.850;2023-01-15T01:56:33;5.95;94.93
76040;SHT30;64736;50.462;4.850;2023-01-15T01:59:01;5.98;95.12
76040;SHT30;64736;50.462;4.850;2023-01-15T02:01:27;5.90;94.41
76040;SHT30;64736;50.462;4.850;2023-01-15T02:03:53;5.89;93.98
76040;SHT30;64736;50.462;4.850;2023-01-15T02:06:22;5.89;93.72
76040;SHT30;64736;50.462;4.850;2023-01-15T02:08:48;5.88;94.14
76040;SHT30;64736;50.462;4.850;2023-01-15T02:11:20;5.88;93.33
76040;SHT30;64736;50.462;4.850;2023-01-15T02:16:42;5.93;93.79
76040;SHT30;64736;50.462;4.850;2023-01-15T02:24:43;5.99;94.40
76040;SHT30;64736;50.462;4.850;2023-01-15T02:27:18;5.93;93.78
76040;SHT30;64736;50.462;4.850;2023-01-15T02:32:45;5.88;92.87
76040;SHT30;64736;50.462;4.850;2023-01-15T02:35:25;5.82;92.55
76040;SHT30;64736;50.462;4.850;2023-01-15T02:37:56;5.79;92.19
76040;SHT30;64736;50.462;4.850;2023-01-15T02:40:24;5.80;92.46
76040;SHT30;64736;50.462;4.850;2023-01-15T02:42:51;5.79;91.47
76040;SHT30;64736;50.462;4.850;2023-01-15T02:45:30;5.80;91.36
76040;SHT30;64736;50.462;4.850;2023-01-15T02:48:01;5.82;91.92
76040;SHT30;64736;50.462;4.850;2023-01-15T02:50:34;5.83;90.91
76040;SHT30;64736;50.462;4.850;2023-01-15T02:53:04;5.90;91.53
76040;SHT30;64736;50.462;4.850;2023-01-15T02:55:37;5.88;90.88
76040;SHT30;64736;50.462;4.850;2023-01-15T02:58:08;5.95;91.88
76040;SHT30;64736;50.462;4.850;2023-01-15T03:00:40;5.98;91.56
76040;SHT30;64736;50.462;4.850;2023-01-15T03:04:18;5.96;91.11
76040;SHT30;64736;50.462;4.850;2023-01-15T03:08:58;5.99;91.92
76040;SHT30;64736;50.462;4.850;2023-01-15T03:11:24;5.98;91.66
76040;SHT30;64736;50.462;4.850;2023-01-15T03:14:13;6.00;91.20
76040;SHT30;64736;50.462;4.850;2023-01-15T03:16:47;6.03;90.15
76040;SHT30;64736;50.462;4.850;2023-01-15T03:22:04;6.06;89.95
76040;SHT30;64736;50.462;4.850;2023-01-15T03:27:00;6.09;89.73
76040;SHT30;64736;50.462;4.850;2023-01-15T03:29:32;6.05;90.51
76040;SHT30;64736;50.462;4.850;2023-01-15T03:31:59;6.00;89.70
76040;SHT30;64736;50.462;4.850;2023-01-15T03:34:29;5.96;88.04
76040;SHT30;64736;50.462;4.850;2023-01-15T03:36:58;5.93;88.62
76040;SHT30;64736;50.462;4.850;2023-01-15T03:39:24;5.89;87.91
76040;SHT30;64736;50.462;4.850;2023-01-15T03:44:49;5.89;86.48
76040;SHT30;64736;50.462;4.850;2023-01-15T03:47:49;5.88;86.98
76040;SHT30;64736;50.462;4.850;2023-01-15T03:50:35;5.88;86.66
76040;SHT30;64736;50.462;4.850;2023-01-15T03:55:43;5.79;88.17
76040;SHT30;64736;50.462;4.850;2023-01-15T03:58:18;5.78;88.77
76040;SHT30;64736;50.462;4.850;2023-01-15T04:00:50;5.75;89.53
76040;SHT30;64736;50.462;4.850;2023-01-15T04:03:17;5.75;90.10
76040;SHT30;64736;50.462;4.850;2023-01-15T04:05:45;5.73;90.69
76040;SHT30;64736;50.462;4.850;2023-01-15T04:08:13;5.75;90.60
76040;SHT30;64736;50.462;4.850;2023-01-15T04:10:55;5.72;91.65
76040;SHT30;64736;50.462;4.850;2023-01-15T04:13:23;5.71;92.01
76040;SHT30;64736;50.462;4.850;2023-01-15T04:15:49;5.71;92.36
76040;SHT30;64736;50.462;4.850;2023-01-15T04:18:15;5.66;92.48
76040;SHT30;64736;50.462;4.850;2023-01-15T04:20:41;5.69;91.97
76040;SHT30;64736;50.462;4.850;2023-01-15T04:23:07;5.66;91.55
76040;SHT30;64736;50.462;4.850;2023-01-15T04:25:33;5.68;91.72
76040;SHT30;64736;50.462;4.850;2023-01-15T04:27:59;5.65;92.45
76040;SHT30;64736;50.462;4.850;2023-01-15T04:30:24;5.65;92.83
76040;SHT30;64736;50.462;4.850;2023-01-15T04:32:51;5.65;93.25
76040;SHT30;64736;50.462;4.850;2023-01-15T04:35:17;5.65;93.29
76040;SHT30;64736;50.462;4.850;2023-01-15T04:37:44;5.68;93.27
76040;SHT30;64736;50.462;4.850;2023-01-15T04:40:10;5.68;93.05
76040;SHT30;64736;50.462;4.850;2023-01-15T04:42:56;5.69;92.34
76040;SHT30;64736;50.462;4.850;2023-01-15T04:45:43;5.71;92.48
76040;SHT30;64736;50.462;4.850;2023-01-15T04:48:08;5.72;92.52
76040;SHT30;64736;50.462;4.850;2023-01-15T04:50:34;5.71;92.44
76040;SHT30;64736;50.462;4.850;2023-01-15T04:53:00;5.75;92.03
76040;SHT30;64736;50.462;4.850;2023-01-15T04:55:26;5.78;92.33
76040;SHT30;64736;50.462;4.850;2023-01-15T04:57:52;5.78;91.84
76040;SHT30;64736;50.462;4.850;2023-01-15T05:00:18;5.78;93.26
76040;SHT30;64736;50.462;4.850;2023-01-15T05:02:43;5.71;93.74
76040;SHT30;64736;50.462;4.850;2023-01-15T05:05:09;5.58;93.33
76040;SHT30;64736;50.462;4.850;2023-01-15T05:07:35;5.48;93.34
76040;SHT30;64736;50.462;4.850;2023-01-15T05:10:00;5.47;92.70
76040;SHT30;64736;50.462;4.850;2023-01-15T05:12:26;5.45;92.93
76040;SHT30;64736;50.462;4.850;2023-01-15T05:14:52;5.30;92.84
76040;SHT30;64736;50.462;4.850;2023-01-15T05:17:17;5.20;91.87
76040;SHT30;64736;50.462;4.850;2023-01-15T05:19:43;5.10;92.25
76040;SHT30;64736;50.462;4.850;2023-01-15T05:22:09;5.01;93.09
76040;SHT30;64736;50.462;4.850;2023-01-15T05:24:35;4.99;92.65
76040;SHT30;64736;50.462;4.850;2023-01-15T05:27:00;4.96;94.25
76040;SHT30;64736;50.462;4.850;2023-01-15T05:29:27;4.80;94.62
76040;SHT30;64736;50.462;4.850;2023-01-15T05:31:53;4.80;94.75
76040;SHT30;64736;50.462;4.850;2023-01-15T05:34:18;4.80;95.07
76040;SHT30;64736;50.462;4.850;2023-01-15T05:36:44;4.80;95.43
76040;SHT30;64736;50.462;4.850;2023-01-15T05:39:10;4.82;95.46
76040;SHT30;64736;50.462;4.850;2023-01-15T05:41:36;4.80;95.08
76040;SHT30;64736;50.462;4.850;2023-01-15T05:46:42;4.84;94.93
76040;SHT30;64736;50.462;4.850;2023-01-15T05:49:11;4.90;95.00
76040;SHT30;64736;50.462;4.850;2023-01-15T05:51:38;4.89;95.13
76040;SHT30;64736;50.462;4.850;2023-01-15T05:54:05;4.94;94.55
76040;SHT30;64736;50.462;4.850;2023-01-15T05:56:34;4.96;94.28
76040;SHT30;64736;50.462;4.850;2023-01-15T05:59:00;4.99;94.39
76040;SHT30;64736;50.462;4.850;2023-01-15T06:01:26;4.99;93.24
76040;SHT30;64736;50.462;4.850;2023-01-15T06:03:52;5.03;92.76
76040;SHT30;64736;50.462;4.850;2023-01-15T06:06:19;5.06;92.20
76040;SHT30;64736;50.462;4.850;2023-01-15T06:08:45;5.07;92.84
76040;SHT30;64736;50.462;4.850;2023-01-15T06:11:12;5.09;92.20
76040;SHT30;64736;50.462;4.850;2023-01-15T06:13:39;5.07;91.81
76040;SHT30;64736;50.462;4.850;2023-01-15T06:16:05;5.09;92.00
76040;SHT30;64736;50.462;4.850;2023-01-15T06:18:31;5.09;91.45
76040;SHT30;64736;50.462;4.850;2023-01-15T06:21:06;5.10;91.14
76040;SHT30;64736;50.462;4.850;2023-01-15T06:23:32;5.11;91.06
76040;SHT30;64736;50.462;4.850;2023-01-15T06:26:03;5.11;91.15
76040;SHT30;64736;50.462;4.850;2023-01-15T06:28:29;5.13;90.70
76040;SHT30;64736;50.462;4.850;2023-01-15T06:30:55;5.16;90.21
76040;SHT30;64736;50.462;4.850;2023-01-15T06:33:22;5.19;90.49
76040;SHT30;64736;50.462;4.850;2023-01-15T06:35:47;5.20;90.17
76040;SHT30;64736;50.462;4.850;2023-01-15T06:38:13;5.19;90.54
76040;SHT30;64736;50.462;4.850;2023-01-15T06:40:39;5.23;89.27
76040;SHT30;64736;50.462;4.850;2023-01-15T06:43:05;5.28;88.96
76040;SHT30;64736;50.462;4.850;2023-01-15T06:45:49;5.28;89.26
76040;SHT30;64736;50.462;4.850;2023-01-15T06:48:34;5.30;89.21
76040;SHT30;64736;50.462;4.850;2023-01-15T06:50:59;5.28;88.68
76040;SHT30;64736;50.462;4.850;2023-01-15T06:53:25;5.28;88.46
76040;SHT30;64736;50.462;4.850;2023-01-15T06:55:51;5.31;88.52
76040;SHT30;64736;50.462;4.850;2023-01-15T06:58:16;5.30;88.65
76040;SHT30;64736;50.462;4.850;2023-01-15T07:00:42;5.27;88.49
76040;SHT30;64736;50.462;4.850;2023-01-15T07:03:09;5.28;88.26
76040;SHT30;64736;50.462;4.850;2023-01-15T07:05:39;5.24;88.93
76040;SHT30;64736;50.462;4.850;2023-01-15T07:08:05;5.24;88.33
76040;SHT30;64736;50.462;4.850;2023-01-15T07:10:33;5.23;88.56
76040;SHT30;64736;50.462;4.850;2023-01-15T07:12:59;5.20;87.95
76040;SHT30;64736;50.462;4.850;2023-01-15T07:15:25;5.19;88.26
76040;SHT30;64736;50.462;4.850;2023-01-15T07:17:57;5.16;88.33
76040;SHT30;64736;50.462;4.850;2023-01-15T07:20:23;5.17;87.80
76040;SHT30;64736;50.462;4.850;2023-01-15T07:22:52;5.24;87.92
76040;SHT30;64736;50.462;4.850;2023-01-15T07:25:18;5.21;88.09
76040;SHT30;64736;50.462;4.850;2023-01-15T07:27:46;5.24;87.78
76040;SHT30;64736;50.462;4.850;2023-01-15T07:30:13;5.26;87.19
76040;SHT30;64736;50.462;4.850;2023-01-15T07:32:40;5.19;87.92
76040;SHT30;64736;50.462;4.850;2023-01-15T07:35:06;5.14;88.38
76040;SHT30;64736;50.462;4.850;2023-01-15T07:37:31;5.10;88.03
76040;SHT30;64736;50.462;4.850;2023-01-15T07:39:57;5.04;88.58
76040;SHT30;64736;50.462;4.850;2023-01-15T07:42:23;4.96;88.90
76040;SHT30;64736;50.462;4.850;2023-01-15T07:45:08;4.93;88.39
76040;SHT30;64736;50.462;4.850;2023-01-15T07:47:53;4.87;88.92
76040;SHT30;64736;50.462;4.850;2023-01-15T07:50:37;4.86;87.86
76040;SHT30;64736;50.462;4.850;2023-01-15T07:53:03;4.87;88.17
76040;SHT30;64736;50.462;4.850;2023-01-15T07:55:29;4.84;87.85
76040;SHT30;64736;50.462;4.850;2023-01-15T07:57:55;4.84;87.72
76040;SHT30;64736;50.462;4.850;2023-01-15T08:00:23;4.83;87.63
76040;SHT30;64736;50.462;4.850;2023-01-15T08:02:49;4.80;87.75
76040;SHT30;64736;50.462;4.850;2023-01-15T08:05:17;4.76;87.32
76040;SHT30;64736;50.462;4.850;2023-01-15T08:07:43;4.73;87.34
76040;SHT30;64736;50.462;4.850;2023-01-15T08:10:11;4.72;87.50
76040;SHT30;64736;50.462;4.850;2023-01-15T08:12:38;4.69;87.81
76040;SHT30;64736;50.462;4.850;2023-01-15T08:15:23;4.63;87.40
76040;SHT30;64736;50.462;4.850;2023-01-15T08:17:49;4.69;86.97
76040;SHT30;64736;50.462;4.850;2023-01-15T08:20:24;4.69;86.52
76040;SHT30;64736;50.462;4.850;2023-01-15T08:22:50;4.69;86.40
76040;SHT30;64736;50.462;4.850;2023-01-15T08:25:21;4.71;86.68
76040;SHT30;64736;50.462;4.850;2023-01-15T08:27:47;4.73;86.19
76040;SHT30;64736;50.462;4.850;2023-01-15T08:30:15;4.71;86.40
76040;SHT30;64736;50.462;4.850;2023-01-15T08:32:41;4.72;85.62
76040;SHT30;64736;50.462;4.850;2023-01-15T08:35:08;4.72;85.84
76040;SHT30;64736;50.462;4.850;2023-01-15T08:37:34;4.69;85.43
76040;SHT30;64736;50.462;4.850;2023-01-15T08:39:59;4.75;85.08
76040;SHT30;64736;50.462;4.850;2023-01-15T08:42:25;4.68;85.57
76040;SHT30;64736;50.462;4.850;2023-01-15T08:44:51;4.65;85.59
76040;SHT30;64736;50.462;4.850;2023-01-15T08:47:17;4.72;85.17
76040;SHT30;64736;50.462;4.850;2023-01-15T08:49:45;4.76;84.13
76040;SHT30;64736;50.462;4.850;2023-01-15T08:52:11;4.76;84.41
76040;SHT30;64736;50.462;4.850;2023-01-15T08:54:37;4.83;84.04
76040;SHT30;64736;50.462;4.850;2023-01-15T08:57:02;4.89;83.99
76040;SHT30;64736;50.462;4.850;2023-01-15T08:59:28;4.89;83.89
76040;SHT30;64736;50.462;4.850;2023-01-15T09:01:54;4.90;83.39
76040;SHT30;64736;50.462;4.850;2023-01-15T09:04:20;4.90;82.85
76040;SHT30;64736;50.462;4.850;2023-01-15T09:06:47;4.86;83.12
76040;SHT30;64736;50.462;4.850;2023-01-15T09:09:14;4.84;83.22
76040;SHT30;64736;50.462;4.850;2023-01-15T09:11:40;4.83;83.36
76040;SHT30;64736;50.462;4.850;2023-01-15T09:14:10;4.86;83.10
76040;SHT30;64736;50.462;4.850;2023-01-15T09:16:37;4.84;83.39
76040;SHT30;64736;50.462;4.850;2023-01-15T09:19:04;4.86;82.69
76040;SHT30;64736;50.462;4.850;2023-01-15T09:21:30;4.86;82.76
76040;SHT30;64736;50.462;4.850;2023-01-15T09:23:56;4.93;82.29
76040;SHT30;64736;50.462;4.850;2023-01-15T09:26:42;4.96;82.11
76040;SHT30;64736;50.462;4.850;2023-01-15T09:29:09;5.00;82.21
76040;SHT30;64736;50.462;4.850;2023-01-15T09:31:35;5.03;82.07
76040;SHT30;64736;50.462;4.850;2023-01-15T09:34:01;5.10;80.91
76040;SHT30;64736;50.462;4.850;2023-01-15T09:36:29;5.27;81.35
76040;SHT30;64736;50.462;4.850;2023-01-15T09:38:56;5.44;80.10
76040;SHT30;64736;50.462;4.850;2023-01-15T09:41:23;5.40;79.95
76040;SHT30;64736;50.462;4.850;2023-01-15T09:47:10;5.31;80.32
76040;SHT30;64736;50.462;4.850;2023-01-15T09:55:14;5.66;78.73
76040;SHT30;64736;50.462;4.850;2023-01-15T09:57:42;5.76;78.25
76040;SHT30;64736;50.462;4.850;2023-01-15T10:00:20;5.75;78.90
76040;SHT30;64736;50.462;4.850;2023-01-15T10:02:57;5.76;79.22
76040;SHT30;64736;50.462;4.850;2023-01-15T10:05:44;5.95;77.93
76040;SHT30;64736;50.462;4.850;2023-01-15T10:08:28;6.05;76.76
76040;SHT30;64736;50.462;4.850;2023-01-15T10:11:01;6.23;76.86
76040;SHT30;64736;50.462;4.850;2023-01-15T10:13:34;6.30;76.87
76040;SHT30;64736;50.462;4.850;2023-01-15T10:16:04;6.40;77.49
76040;SHT30;64736;50.462;4.850;2023-01-15T10:18:30;6.45;78.81
76040;SHT30;64736;50.462;4.850;2023-01-15T10:21:20;6.40;78.57
76040;SHT30;64736;50.462;4.850;2023-01-15T10:24:20;6.27;79.26
76040;SHT30;64736;50.462;4.850;2023-01-15T10:26:53;6.19;78.72
76040;SHT30;64736;50.462;4.850;2023-01-15T10:32:21;6.07;81.07
76040;SHT30;64736;50.462;4.850;2023-01-15T10:35:10;6.16;79.91
76040;SHT30;64736;50.462;4.850;2023-01-15T10:43:12;6.45;77.19
76040;SHT30;64736;50.462;4.850;2023-01-15T10:45:46;6.57;76.67
76040;SHT30;64736;50.462;4.850;2023-01-15T10:50:59;6.58;75.57
76040;SHT30;64736;50.462;4.850;2023-01-15T10:59:17;6.82;73.73
76040;SHT30;64736;50.462;4.850;2023-01-15T11:01:52;7.24;73.05
76040;SHT30;64736;50.462;4.850;2023-01-15T11:04:19;6.89;73.27
76040;SHT30;64736;50.462;4.850;2023-01-15T11:06:45;6.68;73.84
76040;SHT30;64736;50.462;4.850;2023-01-15T11:09:22;6.67;74.28
76040;SHT30;64736;50.462;4.850;2023-01-15T11:11:49;7.05;73.18
76040;SHT30;64736;50.462;4.850;2023-01-15T11:14:39;8.50;68.85
76040;SHT30;64736;50.462;4.850;2023-01-15T11:17:51;9.37;64.53
76040;SHT30;64736;50.462;4.850;2023-01-15T11:20:43;8.44;67.87
76040;SHT30;64736;50.462;4.850;2023-01-15T11:23:18;8.91;65.77
76040;SHT30;64736;50.462;4.850;2023-01-15T11:26:02;8.97;66.28
76040;SHT30;64736;50.462;4.850;2023-01-15T11:28:34;9.07;64.94
76040;SHT30;64736;50.462;4.850;2023-01-15T11:31:01;8.77;65.67
76040;SHT30;64736;50.462;4.850;2023-01-15T11:33:28;8.07;67.52
76040;SHT30;64736;50.462;4.850;2023-01-15T11:35:58;7.71;69.18
76040;SHT30;64736;50.462;4.850;2023-01-15T11:38:26;7.44;70.07
76040;SHT30;64736;50.462;4.850;2023-01-15T11:41:00;8.47;66.95
76040;SHT30;64736;50.462;4.850;2023-01-15T11:43:29;8.28;67.31
76040;SHT30;64736;50.462;4.850;2023-01-15T11:49:10;8.74;66.03
76040;SHT30;64736;50.462;4.850;2023-01-15T11:51:55;8.16;67.29
76040;SHT30;64736;50.462;4.850;2023-01-15T11:54:24;7.42;69.76
76040;SHT30;64736;50.462;4.850;2023-01-15T11:56:50;7.44;69.27
76040;SHT30;64736;50.462;4.850;2023-01-15T11:59:18;7.58;69.89
76040;SHT30;64736;50.462;4.850;2023-01-15T12:02:15;8.63;67.70
76040;SHT30;64736;50.462;4.850;2023-01-15T12:04:50;8.65;66.26
76040;SHT30;64736;50.462;4.850;2023-01-15T12:07:22;7.95;68.26
76040;SHT30;64736;50.462;4.850;2023-01-15T12:10:02;8.70;65.74
76040;SHT30;64736;50.462;4.850;2023-01-15T12:20:28;9.71;62.56
76040;SHT30;64736;50.462;4.850;2023-01-15T12:26:04;8.71;65.55
76040;SHT30;64736;50.462;4.850;2023-01-15T12:28:42;8.10;66.77
76040;SHT30;64736;50.462;4.850;2023-01-15T12:31:42;7.82;67.08
76040;SHT30;64736;50.462;4.850;2023-01-15T12:34:16;7.89;68.56
76040;SHT30;64736;50.462;4.850;2023-01-15T12:41:48;7.92;67.51
76040;SHT30;64736;50.462;4.850;2023-01-15T12:44:45;7.77;68.41
76040;SHT30;64736;50.462;4.850;2023-01-15T12:47:40;7.72;68.78
76040;SHT30;64736;50.462;4.850;2023-01-15T12:50:34;7.71;69.05
76040;SHT30;64736;50.462;4.850;2023-01-15T12:55:31;7.71;69.05
76040;SHT30;64736;50.462;4.850;2023-01-15T12:58:02;7.78;69.25
76040;SHT30;64736;50.462;4.850;2023-01-15T13:00:34;7.65;69.12
76040;SHT30;64736;50.462;4.850;2023-01-15T13:03:23;7.71;69.37
76040;SHT30;64736;50.462;4.850;2023-01-15T13:05:57;7.50;69.37
76040;SHT30;64736;50.462;4.850;2023-01-15T13:08:34;7.46;70.34
76040;SHT30;64736;50.462;4.850;2023-01-15T13:11:02;7.37;70.32
76040;SHT30;64736;50.462;4.850;2023-01-15T13:13:31;7.48;70.40
76040;SHT30;64736;50.462;4.850;2023-01-15T13:21:13;7.43;70.22
76040;SHT30;64736;50.462;4.850;2023-01-15T13:29:29;7.38;70.46
76040;SHT30;64736;50.462;4.850;2023-01-15T13:32:08;7.88;69.56
76040;SHT30;64736;50.462;4.850;2023-01-15T13:42:51;9.71;62.49
76040;SHT30;64736;50.462;4.850;2023-01-15T13:45:38;8.67;66.73
76040;SHT30;64736;50.462;4.850;2023-01-15T13:48:33;8.46;67.20
76040;SHT30;64736;50.462;4.850;2023-01-15T13:51:02;8.43;67.71
76040;SHT30;64736;50.462;4.850;2023-01-15T13:53:46;8.29;68.21
76040;SHT30;64736;50.462;4.850;2023-01-15T13:56:25;8.19;68.79
76040;SHT30;64736;50.462;4.850;2023-01-15T14:04:05;7.95;69.11
76040;SHT30;64736;50.462;4.850;2023-01-15T14:06:51;8.02;69.46
76040;SHT30;64736;50.462;4.850;2023-01-15T14:11:49;8.67;66.31
76040;SHT30;64736;50.462;4.850;2023-01-15T14:23:04;8.03;68.97
76040;SHT30;64736;50.462;4.850;2023-01-15T14:42:09;7.92;69.14
76040;SHT30;64736;50.462;4.850;2023-01-15T14:45:06;7.86;68.89
76040;SHT30;64736;50.462;4.850;2023-01-15T14:47:44;7.77;69.15
76040;SHT30;64736;50.462;4.850;2023-01-15T14:52:46;7.74;68.91
76040;SHT30;64736;50.462;4.850;2023-01-15T14:55:14;7.71;69.05
76040;SHT30;64736;50.462;4.850;2023-01-15T14:58:04;7.57;68.95
76040;SHT30;64736;50.462;4.850;2023-01-15T15:00:41;7.53;69.43
76040;SHT30;64736;50.462;4.850;2023-01-15T15:03:21;7.54;70.07
76040;SHT30;64736;50.462;4.850;2023-01-15T15:05:51;7.37;71.08
76040;SHT30;64736;50.462;4.850;2023-01-15T15:08:18;7.30;71.93
76040;SHT30;64736;50.462;4.850;2023-01-15T15:10:46;7.27;71.46
76040;SHT30;64736;50.462;4.850;2023-01-15T15:13:31;7.28;71.21
76040;SHT30;64736;50.462;4.850;2023-01-15T15:16:10;7.17;73.86
76040;SHT30;64736;50.462;4.850;2023-01-15T15:18:50;7.06;75.84
76040;SHT30;64736;50.462;4.850;2023-01-15T15:21:28;6.78;81.28
76040;SHT30;64736;50.462;4.850;2023-01-15T15:31:27;6.47;78.84
76040;SHT30;64736;50.462;4.850;2023-01-15T15:33:54;6.45;77.65
76040;SHT30;64736;50.462;4.850;2023-01-15T15:36:23;6.48;76.93
76040;SHT30;64736;50.462;4.850;2023-01-15T15:38:59;6.57;77.14
76040;SHT30;64736;50.462;4.850;2023-01-15T15:41:31;6.59;77.03
76040;SHT30;64736;50.462;4.850;2023-01-15T15:47:37;6.45;79.96
76040;SHT30;64736;50.462;4.850;2023-01-15T15:50:27;5.50;88.80
76040;SHT30;64736;50.462;4.850;2023-01-15T15:52:55;5.27;91.59
76040;SHT30;64736;50.462;4.850;2023-01-15T15:55:24;5.13;92.21
76040;SHT30;64736;50.462;4.850;2023-01-15T15:57:56;5.17;92.48
76040;SHT30;64736;50.462;4.850;2023-01-15T16:00:34;5.16;93.21
76040;SHT30;64736;50.462;4.850;2023-01-15T16:03:07;5.21;93.91
76040;SHT30;64736;50.462;4.850;2023-01-15T16:05:39;5.23;93.46
76040;SHT30;64736;50.462;4.850;2023-01-15T16:08:11;5.24;93.35
76040;SHT30;64736;50.462;4.850;2023-01-15T16:10:40;5.23;92.74
76040;SHT30;64736;50.462;4.850;2023-01-15T16:13:15;5.24;92.36
76040;SHT30;64736;50.462;4.850;2023-01-15T16:15:41;5.26;91.07
76040;SHT30;64736;50.462;4.850;2023-01-15T16:18:19;5.31;91.04
76040;SHT30;64736;50.462;4.850;2023-01-15T16:20:48;5.27;91.04
76040;SHT30;64736;50.462;4.850;2023-01-15T16:23:22;5.28;91.14
76040;SHT30;64736;50.462;4.850;2023-01-15T16:25:59;5.27;89.41
76040;SHT30;64736;50.462;4.850;2023-01-15T16:28:40;5.35;89.69
76040;SHT30;64736;50.462;4.850;2023-01-15T16:31:09;5.40;86.81
76040;SHT30;64736;50.462;4.850;2023-01-15T16:33:37;5.44;87.59
76040;SHT30;64736;50.462;4.850;2023-01-15T16:36:03;5.48;85.83
76040;SHT30;64736;50.462;4.850;2023-01-15T16:38:32;5.52;87.05
76040;SHT30;64736;50.462;4.850;2023-01-15T16:40:58;5.54;86.89
76040;SHT30;64736;50.462;4.850;2023-01-15T16:43:26;5.55;85.91
76040;SHT30;64736;50.462;4.850;2023-01-15T16:46:02;5.65;84.46
76040;SHT30;64736;50.462;4.850;2023-01-15T16:48:35;5.65;84.19
76040;SHT30;64736;50.462;4.850;2023-01-15T16:51:43;5.71;84.40
76040;SHT30;64736;50.462;4.850;2023-01-15T16:56:55;5.73;82.53
76040;SHT30;64736;50.462;4.850;2023-01-15T17:01:55;5.78;83.12
76040;SHT30;64736;50.462;4.850;2023-01-15T17:04:34;5.79;81.17
76040;SHT30;64736;50.462;4.850;2023-01-15T17:09:44;5.82;82.63
76040;SHT30;64736;50.462;4.850;2023-01-15T17:12:28;5.85;81.42
76040;SHT30;64736;50.462;4.850;2023-01-15T17:17:48;5.93;82.48
76040;SHT30;64736;50.462;4.850;2023-01-15T17:20:16;5.98;81.45
76040;SHT30;64736;50.462;4.850;2023-01-15T17:22:47;6.00;80.34
76040;SHT30;64736;50.462;4.850;2023-01-15T17:25:33;6.06;80.25
76040;SHT30;64736;50.462;4.850;2023-01-15T17:28:01;6.00;80.44
76040;SHT30;64736;50.462;4.850;2023-01-15T17:30:28;6.05;80.25
76040;SHT30;64736;50.462;4.850;2023-01-15T17:33:03;6.10;79.82
76040;SHT30;64736;50.462;4.850;2023-01-15T17:35:34;6.06;79.98
76040;SHT30;64736;50.462;4.850;2023-01-15T17:38:01;6.09;79.86
76040;SHT30;64736;50.462;4.850;2023-01-15T17:40:27;6.17;78.98
76040;SHT30;64736;50.462;4.850;2023-01-15T17:42:53;6.13;79.45
76040;SHT30;64736;50.462;4.850;2023-01-15T17:45:21;6.14;80.51
76040;SHT30;64736;50.462;4.850;2023-01-15T17:47:47;6.16;79.90
76040;SHT30;64736;50.462;4.850;2023-01-15T17:50:13;6.20;78.69
76040;SHT30;64736;50.462;4.850;2023-01-15T17:52:40;6.19;80.63
76040;SHT30;64736;50.462;4.850;2023-01-15T17:55:11;6.23;79.33
76040;SHT30;64736;50.462;4.850;2023-01-15T17:57:55;6.24;79.02
76040;SHT30;64736;50.462;4.850;2023-01-15T18:00:39;6.21;79.76
76040;SHT30;64736;50.462;4.850;2023-01-15T18:03:23;6.21;79.76
76040;SHT30;64736;50.462;4.850;2023-01-15T18:06:10;6.21;80.72
76040;SHT30;64736;50.462;4.850;2023-01-15T18:08:44;6.24;80.14
76040;SHT30;64736;50.462;4.850;2023-01-15T18:11:10;6.21;79.65
76040;SHT30;64736;50.462;4.850;2023-01-15T18:13:36;6.23;80.47
76040;SHT30;64736;50.462;4.850;2023-01-15T18:16:01;6.23;80.85
76040;SHT30;64736;50.462;4.850;2023-01-15T18:18:27;6.23;79.72
76040;SHT30;64736;50.462;4.850;2023-01-15T18:20:53;6.23;79.97
76040;SHT30;64736;50.462;4.850;2023-01-15T18:23:19;6.27;79.61
76040;SHT30;64736;50.462;4.850;2023-01-15T18:25:45;6.26;78.87
76040;SHT30;64736;50.462;4.850;2023-01-15T18:28:12;6.26;79.96
76040;SHT30;64736;50.462;4.850;2023-01-15T18:30:38;6.17;81.66
76040;SHT30;64736;50.462;4.850;2023-01-15T18:33:05;6.09;82.49
76040;SHT30;64736;50.462;4.850;2023-01-15T18:35:31;6.00;83.15
76040;SHT30;64736;50.462;4.850;2023-01-15T18:37:57;5.93;82.71
76040;SHT30;64736;50.462;4.850;2023-01-15T18:40:23;5.86;85.35